FIN9DF EFHK-LTFG
Flight info
| Callsign | FIN9DF |
|---|---|
| Flight time | N/A |
| Altitude | 38000 |
| Route | KOIVU4N KOIVU Y123 LARTI DCT LUTAL DCT BERIL/N0457F370 DCT TOXAR/N0450F380 DCT ROBTU/N0446F390 DCT KENIN DCT ARGES DCT RIXEN UG1 IST UN616 OVACI UT69 BABSA UT35 AYT T277 UTUSO DCT |
| Aircraft | A20N/M-SDE2E3FGHIRWXY/LB1 |
Departure
| Time | 2026-04-25 11:24 |
|---|---|
| Airport | Helsinki Vantaa Airport (EFHK) |
Arrival
| Time | N/A |
|---|---|
| Airport | Gazipaşa-Alanya Airport (LTFG) |
| Time | Latitude | Longitude | Altitude | Speed | Heading |
|---|---|---|---|---|---|
| 2026-04-25 11:13 | 60.33033 | 24.95439 | 201 ft | 0 kts | 317° |
| 2026-04-25 11:21 | 60.33036 | 24.95433 | 202 ft | 2 kts | 317° |
| 2026-04-25 11:21 | 60.33052 | 24.95403 | 202 ft | 3 kts | 317° |
| 2026-04-25 11:22 | 60.33088 | 24.95336 | 203 ft | 13 kts | 316° |
| 2026-04-25 11:22 | 60.33120 | 24.95244 | 205 ft | 11 kts | 275° |
| 2026-04-25 11:22 | 60.33108 | 24.95006 | 206 ft | 16 kts | 271° |
| 2026-04-25 11:22 | 60.33109 | 24.94721 | 203 ft | 22 kts | 269° |
| 2026-04-25 11:23 | 60.33086 | 24.94375 | 203 ft | 25 kts | 242° |
| 2026-04-25 11:23 | 60.32933 | 24.94000 | 202 ft | 63 kts | 224° |
| 2026-04-25 11:23 | 60.32467 | 24.92948 | 190 ft | 132 kts | 231° |
| 2026-04-25 11:23 | 60.31734 | 24.91356 | 385 ft | 166 kts | 227° |
| 2026-04-25 11:24 | 60.30907 | 24.89699 | 1002 ft | 169 kts | 230° |
| 2026-04-25 11:24 | 60.30184 | 24.87870 | 1665 ft | 168 kts | 239° |
| 2026-04-25 11:24 | 60.29631 | 24.85826 | 2343 ft | 169 kts | 255° |
| 2026-04-25 11:24 | 60.29648 | 24.83396 | 2747 ft | 185 kts | 282° |
| 2026-04-25 11:25 | 60.30010 | 24.80746 | 3135 ft | 205 kts | 285° |
| 2026-04-25 11:25 | 60.30202 | 24.77798 | 3572 ft | 222 kts | 264° |
| 2026-04-25 11:25 | 60.29747 | 24.74735 | 4022 ft | 242 kts | 241° |
| 2026-04-25 11:25 | 60.28502 | 24.72321 | 4554 ft | 261 kts | 210° |
| 2026-04-25 11:26 | 60.26724 | 24.71487 | 5350 ft | 270 kts | 186° |
| 2026-04-25 11:26 | 60.24854 | 24.71335 | 6157 ft | 272 kts | 187° |
| 2026-04-25 11:26 | 60.22966 | 24.71118 | 6921 ft | 274 kts | 188° |
| 2026-04-25 11:26 | 60.21067 | 24.70885 | 7660 ft | 277 kts | 188° |
| 2026-04-25 11:27 | 60.19155 | 24.70650 | 8354 ft | 281 kts | 188° |
| 2026-04-25 11:27 | 60.17199 | 24.70412 | 9073 ft | 284 kts | 188° |
| 2026-04-25 11:27 | 60.15228 | 24.70172 | 9734 ft | 287 kts | 188° |
| 2026-04-25 11:27 | 60.13902 | 24.70009 | 10005 ft | 295 kts | 189° |